Tropical Cyclones
[Index]
Main Index Home Page Stock Weather Photos Extreme Storms Discussion Storm News and Storm Chasing Reports Tropical Cyclones / Hurricanes / Typhoons Weather Data and Links Wild Fires / Bushfires Weather Observation Techniques Weather Picture Catalogue Tornado Pictures and Reports Stock Video Footage and DVDs for sale
Season 2005-2006 Tropical Cyclone VAIANU Track Map
Season 2005-2006 Summaries: [BoM-AU] [JTWC-AU] [JTWC-SIO] [JTWC-SPAC] [JTWC-SH]
<<- Previous TC | JTWC 2005-2006 Season | Next TC ->>

click for intensity scale information  Lat/long Grid: Show Hide

 Date Labels: Show Hide

Joint Typhoon Warning Centre Cyclone Data

Name: VAIANU

10 Feb 2006 18:00 UTC to 17 Feb 2006 18:00 UTC

    date/time    lat    long     hPa   cat  kts
2006-02-10 18   14.9   174.8W   1002         25          
2006-02-11 00   15.6   174.3W   1000         30          
2006-02-11 06   16.5   174.2W   1000         30          
2006-02-11 12   17.2   174.9W    997         35          
2006-02-11 18   17.7   175.5W    994    1    40          
2006-02-12 00   18.0   175.9W    989    1    45          
2006-02-12 06   18.2   176.4W    985    1    50          
2006-02-12 06   18.2   176.4W    985    1    50          
2006-02-12 12   18.7   176.6W    980    2    60          
2006-02-12 12   18.7   176.6W    980    2    60          
2006-02-12 18   19.4   176.7W    976    2    65          
2006-02-12 18   19.4   176.7W    976    2    65          
2006-02-13 00   20.1   176.7W    976    2    65          
2006-02-13 00   20.1   176.7W    976    2    65          
2006-02-13 06   20.9   176.9W    970    2    70          
2006-02-13 06   20.9   176.9W    970    2    70          
2006-02-13 06   20.9   176.9W    970    2    70          
2006-02-13 12   21.6   176.8W    967    3    75          
2006-02-13 12   21.6   176.8W    967    3    75          
2006-02-13 12   21.6   176.8W    967    3    75          
2006-02-13 18   22.2   176.5W    967    3    75          
2006-02-13 18   22.2   176.5W    967    3    75          
2006-02-13 18   22.2   176.5W    967    3    75          
2006-02-14 00   22.8   176.2W    967    3    75          
2006-02-14 00   22.8   176.2W    967    3    75          
2006-02-14 00   22.8   176.2W    967    3    75          
2006-02-14 06   23.3   175.8W    972    2    70          
2006-02-14 06   23.3   175.8W    972    2    70          
2006-02-14 06   23.3   175.8W    972    2    70          
2006-02-14 12   23.9   174.9W    972    2    70          
2006-02-14 12   23.9   174.9W    972    2    70          
2006-02-14 12   23.9   174.9W    972    2    70          
2006-02-14 18   24.4   174.0W    976    2    65          
2006-02-14 18   24.4   174.0W    976    2    65          
2006-02-15 00   25.3   173.0W    984    2    55          
2006-02-15 00   25.3   173.0W    984    2    55          
2006-02-15 06   25.7   171.9W    991    1    45          
2006-02-15 12   26.1   170.8W    991    1    45          
2006-02-15 18   26.6   169.6W    991    1    45          
2006-02-16 00   27.4   168.5W    994    1    40          
2006-02-16 06   28.0   167.5W    997         35          
2006-02-16 12   28.5   166.7W    997         35          
2006-02-16 18   28.9   166.1W    997         35          
2006-02-17 00   29.8   165.6W   1000         30          
2006-02-17 06   30.7   165.5W   1000         30          
2006-02-17 12   31.5   165.3W   1000         30          
2006-02-17 18   32.2   165.0W   1002         25          
Winds are 1-min average.

Tropical cyclone tracks developed by Michael Bath using data from the Joint Typhoon Warning Centre Best Tracks and Google Maps.


[Australian Severe Weather index] [Copyright Notice] [Email Contacts] [Search This Site] [Privacy Policy]
Document: tropical_cyclone_vaianu.htm Updated: 28 June 2017